createdAt,value
2017-05-28T00:01:15.237Z,16.50
2017-05-28T00:03:43.558Z,16.40
2017-05-28T00:06:11.790Z,16.40
2017-05-28T00:08:40.111Z,16.30
2017-05-28T00:11:08.383Z,16.10
2017-05-28T00:13:36.663Z,16.10
2017-05-28T00:16:04.903Z,16.00
2017-05-28T00:18:33.135Z,16.00
2017-05-28T00:21:01.368Z,15.90
2017-05-28T00:23:29.663Z,15.70
2017-05-28T00:25:57.943Z,15.70
2017-05-28T00:28:26.215Z,15.60
2017-05-28T00:30:54.443Z,15.70
2017-05-28T00:33:22.671Z,15.80
2017-05-28T00:35:50.899Z,15.80
2017-05-28T00:38:19.131Z,16.00
2017-05-28T00:40:47.368Z,16.00
2017-05-28T00:43:15.667Z,15.90
2017-05-28T00:45:43.897Z,15.90
2017-05-28T00:48:12.122Z,15.70
2017-05-28T00:50:40.354Z,15.70
2017-05-28T00:53:08.588Z,15.60
2017-05-28T00:55:36.820Z,15.40
2017-05-28T00:58:05.051Z,15.40
2017-05-28T01:00:33.384Z,15.30
2017-05-28T01:03:01.623Z,15.30
2017-05-28T01:05:29.940Z,15.50
2017-05-28T01:07:58.213Z,15.60
2017-05-28T01:10:26.447Z,15.60
2017-05-28T01:12:54.674Z,15.70
2017-05-28T01:15:22.942Z,15.50
2017-05-28T01:17:51.167Z,15.40
2017-05-28T01:20:19.400Z,15.30
2017-05-28T01:22:47.632Z,15.30
2017-05-28T01:25:15.099Z,15.30
2017-05-28T01:27:43.389Z,15.20
2017-05-28T01:30:11.623Z,15.10
2017-05-28T01:32:40.080Z,15.00
2017-05-28T01:35:08.315Z,15.00
2017-05-28T01:37:36.548Z,15.00
2017-05-28T01:40:04.868Z,15.10
2017-05-28T01:42:33.148Z,15.20
2017-05-28T01:45:00.606Z,15.20
2017-05-28T01:47:28.895Z,15.40
2017-05-28T01:49:57.151Z,15.40
2017-05-28T01:52:25.395Z,15.20
2017-05-28T01:54:53.699Z,15.30
2017-05-28T01:57:21.984Z,15.30
2017-05-28T01:59:50.261Z,15.20
2017-05-28T02:02:18.484Z,15.10
2017-05-28T02:04:46.802Z,15.00
2017-05-28T02:07:15.078Z,14.80
2017-05-28T02:09:43.360Z,14.70
2017-05-28T02:12:11.598Z,14.60
2017-05-28T02:14:39.912Z,14.60
2017-05-28T02:17:08.159Z,14.60
2017-05-28T02:19:36.389Z,14.50
2017-05-28T02:22:04.614Z,14.40
2017-05-28T02:24:32.846Z,14.40
2017-05-28T02:27:01.078Z,14.30
2017-05-28T02:29:29.317Z,14.20
2017-05-28T02:31:57.542Z,14.30
2017-05-28T02:34:25.812Z,14.30
2017-05-28T02:36:54.038Z,14.30
2017-05-28T02:39:22.340Z,14.30
2017-05-28T02:41:50.566Z,14.20
2017-05-28T02:44:18.812Z,14.10
2017-05-28T02:46:47.055Z,14.10
2017-05-28T02:49:15.350Z,14.10
2017-05-28T02:51:43.593Z,14.10
2017-05-28T02:54:11.913Z,14.00
2017-05-28T02:56:40.142Z,14.00
2017-05-28T02:59:08.371Z,14.00
2017-05-28T03:01:36.596Z,14.00
2017-05-28T03:04:04.822Z,14.00
2017-05-28T03:06:33.073Z,14.10
2017-05-28T03:09:01.351Z,14.00
2017-05-28T03:11:29.632Z,13.90
2017-05-28T03:13:57.872Z,13.80
2017-05-28T03:16:26.103Z,13.70
2017-05-28T03:18:54.340Z,13.70
2017-05-28T03:21:22.578Z,13.80
2017-05-28T03:23:50.819Z,13.80
2017-05-28T03:26:19.085Z,13.80
2017-05-28T03:28:47.320Z,13.80
2017-05-28T03:31:15.550Z,13.90
2017-05-28T03:33:43.783Z,14.00
2017-05-28T03:36:12.025Z,13.90
2017-05-28T03:38:40.254Z,13.90
2017-05-28T03:41:08.498Z,13.90
2017-05-28T03:43:36.735Z,13.90
2017-05-28T03:46:05.082Z,14.00
2017-05-28T03:48:33.315Z,14.10
2017-05-28T03:51:01.631Z,14.10
2017-05-28T03:53:29.871Z,14.20
2017-05-28T03:55:58.179Z,14.30
2017-05-28T03:58:26.425Z,14.40
2017-05-28T04:00:54.664Z,14.40
2017-05-28T04:03:22.999Z,14.40
2017-05-28T04:05:51.281Z,14.40
2017-05-28T04:08:19.512Z,14.50
2017-05-28T04:10:47.840Z,14.60
2017-05-28T04:13:16.067Z,14.60
2017-05-28T04:15:44.300Z,14.70
2017-05-28T04:18:12.542Z,14.90
2017-05-28T04:20:40.830Z,15.20
2017-05-28T04:23:09.096Z,15.50
2017-05-28T04:25:37.384Z,15.70
2017-05-28T04:28:05.628Z,16.00
2017-05-28T04:30:33.859Z,16.10
2017-05-28T04:33:02.096Z,16.20
2017-05-28T04:35:29.566Z,16.20
2017-05-28T04:37:57.807Z,16.30
2017-05-28T04:40:26.116Z,16.30
2017-05-28T04:42:54.349Z,16.40
2017-05-28T04:45:22.575Z,16.60
2017-05-28T04:47:50.848Z,16.60
2017-05-28T04:50:19.083Z,16.70
2017-05-28T04:52:47.315Z,16.80
2017-05-28T04:55:15.677Z,16.90
2017-05-28T04:57:43.899Z,16.90
2017-05-28T05:00:12.218Z,17.20
2017-05-28T05:02:40.458Z,17.50
2017-05-28T05:05:08.691Z,18.40
2017-05-28T05:07:36.922Z,20.60
2017-05-28T05:10:05.155Z,23.10
2017-05-28T05:12:33.384Z,25.50
2017-05-28T05:15:01.608Z,27.60
2017-05-28T05:17:29.838Z,29.80
2017-05-28T05:19:58.112Z,32.10
2017-05-28T05:22:26.336Z,33.70
2017-05-28T05:24:54.559Z,34.10
2017-05-28T05:27:22.800Z,35.30
2017-05-28T05:29:51.027Z,35.90
2017-05-28T05:32:19.267Z,36.00
2017-05-28T05:34:47.554Z,35.50
2017-05-28T05:37:15.779Z,37.10
2017-05-28T05:39:44.016Z,37.70
2017-05-28T05:42:11.475Z,37.70
2017-05-28T05:44:39.739Z,36.00
2017-05-28T07:32:37.903Z,24.30
2017-05-28T07:35:06.163Z,24.10
2017-05-28T07:37:34.425Z,24.20
2017-05-28T07:40:02.647Z,24.40
2017-05-28T07:42:30.879Z,24.50
2017-05-28T07:44:59.102Z,24.70
2017-05-28T07:47:27.323Z,24.60
2017-05-28T07:49:55.602Z,24.60
2017-05-28T07:52:23.837Z,24.90
2017-05-28T07:54:52.062Z,25.10
2017-05-28T07:57:20.294Z,25.20
2017-05-28T07:59:48.603Z,25.00
2017-05-28T08:02:16.839Z,25.10
2017-05-28T08:04:45.159Z,25.20
2017-05-28T08:07:13.390Z,25.40
2017-05-28T08:09:41.675Z,25.40
2017-05-28T08:12:09.915Z,25.30
2017-05-28T08:14:38.167Z,25.30
2017-05-28T08:17:06.440Z,25.60
2017-05-28T08:19:34.671Z,25.60
2017-05-28T08:22:02.896Z,25.60
2017-05-28T08:24:31.127Z,25.80
2017-05-28T08:26:59.372Z,25.80
2017-05-28T08:29:27.711Z,25.60
2017-05-28T08:31:55.946Z,25.70
2017-05-28T08:34:24.265Z,25.70
2017-05-28T08:36:52.538Z,25.90
2017-05-28T08:39:20.765Z,26.10
2017-05-28T08:41:49.083Z,26.50
2017-05-28T08:44:17.312Z,26.70
2017-05-28T08:46:45.546Z,26.50
2017-05-28T08:49:13.784Z,26.60
2017-05-28T08:51:42.073Z,26.90
2017-05-28T08:54:10.303Z,26.80
2017-05-28T08:56:38.643Z,26.70
2017-05-28T08:59:06.094Z,26.70
2017-05-28T09:01:34.372Z,26.70
2017-05-28T09:04:02.639Z,26.70
2017-05-28T09:06:30.922Z,26.80
2017-05-28T09:08:59.159Z,26.90
2017-05-28T09:11:27.390Z,26.80
2017-05-28T09:13:55.631Z,27.00
2017-05-28T09:16:23.859Z,27.10
2017-05-28T09:18:52.093Z,27.10
2017-05-28T09:21:21.174Z,27.30
2017-05-28T09:23:49.418Z,27.30
2017-05-28T09:26:17.644Z,27.40
2017-05-28T09:28:45.879Z,27.60
2017-05-28T09:31:14.110Z,27.50
2017-05-28T09:33:41.643Z,27.50
2017-05-28T09:36:09.882Z,27.40
2017-05-28T09:38:38.199Z,27.40
2017-05-28T09:41:06.432Z,27.40
2017-05-28T09:43:34.658Z,27.70
2017-05-28T09:46:02.902Z,27.70
2017-05-28T09:48:31.132Z,27.40
2017-05-28T09:50:59.372Z,27.40
2017-05-28T09:53:27.603Z,27.40
2017-05-28T09:55:55.844Z,28.00
2017-05-28T09:58:24.075Z,28.10
2017-05-28T10:00:52.317Z,28.20
2017-05-28T10:03:20.546Z,28.40
2017-05-28T10:05:48.776Z,28.20
2017-05-28T10:08:17.011Z,28.10
2017-05-28T10:10:45.239Z,28.00
2017-05-28T10:13:13.549Z,28.00
2017-05-28T10:15:41.806Z,28.10
2017-05-28T10:18:10.091Z,28.40
2017-05-28T10:20:38.318Z,28.30
2017-05-28T10:23:06.638Z,28.40
2017-05-28T10:25:34.876Z,28.20
2017-05-28T10:28:03.114Z,28.30
2017-05-28T10:30:31.334Z,28.60
2017-05-28T10:32:59.575Z,28.90
2017-05-28T10:35:27.914Z,28.80
2017-05-28T10:37:56.160Z,29.00
2017-05-28T10:40:24.383Z,28.90
2017-05-28T10:42:52.623Z,28.90
2017-05-28T10:45:20.919Z,29.20
2017-05-28T10:47:49.154Z,29.20
2017-05-28T10:50:17.379Z,29.30
2017-05-28T10:52:45.615Z,29.50
2017-05-28T10:55:13.916Z,29.40
2017-05-28T10:57:42.144Z,29.30
2017-05-28T11:00:10.371Z,29.50
2017-05-28T11:02:38.645Z,29.60
2017-05-28T11:05:06.875Z,29.60
2017-05-28T11:07:35.103Z,29.60
2017-05-28T11:10:03.330Z,29.20
2017-05-28T11:12:31.560Z,29.50
2017-05-28T11:14:59.800Z,29.80
2017-05-28T11:17:28.025Z,30.00
2017-05-28T11:19:56.259Z,30.20
2017-05-28T11:22:30.702Z,30.20
2017-05-28T11:24:58.938Z,30.20
2017-05-28T11:27:27.231Z,30.20
2017-05-28T11:29:55.472Z,30.20
2017-05-28T11:32:23.695Z,30.50
2017-05-28T11:34:51.955Z,30.60
2017-05-28T11:37:20.195Z,30.50
2017-05-28T11:39:47.655Z,30.50
2017-05-28T11:42:15.964Z,30.30
2017-05-28T11:44:44.189Z,30.30
2017-05-28T11:47:12.429Z,30.40
2017-05-28T11:49:40.659Z,30.10
2017-05-28T11:52:08.904Z,29.90
2017-05-28T11:54:37.132Z,30.10
2017-05-28T11:57:05.369Z,30.30
2017-05-28T11:59:33.687Z,30.70
2017-05-28T12:02:01.963Z,30.80
2017-05-28T12:04:29.427Z,30.80
2017-05-28T12:06:57.655Z,30.80
2017-05-28T12:09:25.885Z,30.30
2017-05-28T12:11:54.125Z,30.10
2017-05-28T12:14:22.352Z,30.30
2017-05-28T12:16:50.692Z,30.50
2017-05-28T12:19:18.927Z,30.50
2017-05-28T12:21:47.153Z,30.40
2017-05-28T12:24:15.415Z,30.70
2017-05-28T12:26:43.682Z,30.80
2017-05-28T12:29:11.914Z,30.70
2017-05-28T12:31:40.244Z,30.80
2017-05-28T12:34:08.479Z,30.70
2017-05-28T12:36:36.754Z,30.70
2017-05-28T12:39:04.990Z,30.50
2017-05-28T12:41:33.218Z,30.60
2017-05-28T12:44:01.516Z,30.50
2017-05-28T12:46:29.752Z,30.60
2017-05-28T12:48:57.256Z,30.60
2017-05-28T12:51:25.480Z,30.70
2017-05-28T12:53:53.709Z,30.90
2017-05-28T12:56:21.936Z,31.20
2017-05-28T12:58:50.162Z,31.30
2017-05-28T13:01:18.403Z,31.20
2017-05-28T13:03:46.627Z,31.30
2017-05-28T13:06:14.860Z,31.60
2017-05-28T13:08:43.156Z,31.70
2017-05-28T13:11:11.387Z,31.60
2017-05-28T13:13:39.696Z,31.50
2017-05-28T13:16:07.940Z,31.50
2017-05-28T13:18:36.244Z,31.50
2017-05-28T13:21:04.484Z,31.60
2017-05-28T13:23:32.710Z,31.50
2017-05-28T13:26:01.076Z,31.70
2017-05-28T13:28:29.311Z,31.60
2017-05-28T13:30:57.623Z,31.30
2017-05-28T13:33:25.897Z,31.50
2017-05-28T13:35:54.124Z,31.30
2017-05-28T13:38:22.453Z,31.50
2017-05-28T13:40:50.682Z,31.60
2017-05-28T13:43:18.160Z,31.60
2017-05-28T13:45:46.453Z,31.60
2017-05-28T13:48:14.736Z,31.60
2017-05-28T13:50:42.968Z,31.50
2017-05-28T13:53:11.200Z,31.50
2017-05-28T13:55:39.453Z,31.80
2017-05-28T13:58:07.683Z,31.80
2017-05-28T14:00:36.017Z,31.90
2017-05-28T14:03:04.269Z,32.10
2017-05-28T14:05:32.492Z,32.10
2017-05-28T14:08:00.715Z,32.10
2017-05-28T14:10:28.947Z,31.90
2017-05-28T14:12:57.179Z,31.90
2017-05-28T14:15:25.419Z,31.60
2017-05-28T14:17:53.653Z,31.10
2017-05-28T14:20:21.895Z,31.20
2017-05-28T14:22:50.122Z,31.30
2017-05-28T14:25:18.358Z,31.30
2017-05-28T14:27:46.593Z,31.30
2017-05-28T14:30:14.911Z,31.10
2017-05-28T14:32:43.142Z,31.40
2017-05-28T14:35:11.375Z,31.40
2017-05-28T14:37:39.613Z,31.20
2017-05-28T14:40:07.866Z,31.30
2017-05-28T14:42:36.184Z,31.30
2017-05-28T14:45:04.456Z,31.40
2017-05-28T14:47:32.681Z,31.30
2017-05-28T14:50:00.915Z,31.20
2017-05-28T14:52:29.158Z,31.10
2017-05-28T14:54:57.452Z,31.20
2017-05-28T14:57:25.686Z,31.30
2017-05-28T14:59:54.004Z,31.30
2017-05-28T15:02:22.279Z,31.20
2017-05-28T15:04:50.509Z,31.10
2017-05-28T15:07:18.738Z,31.40
2017-05-28T15:09:47.519Z,31.30
2017-05-28T15:12:15.754Z,31.60
2017-05-28T15:14:43.989Z,31.40
2017-05-28T15:17:12.249Z,31.30
2017-05-28T15:19:40.477Z,31.10
2017-05-28T15:22:08.702Z,31.20
2017-05-28T15:24:36.964Z,31.20
2017-05-28T15:27:05.191Z,31.50
2017-05-28T15:29:33.508Z,31.70
2017-05-28T15:32:01.746Z,31.80
2017-05-28T15:34:29.984Z,31.70
2017-05-28T15:36:58.215Z,31.90
2017-05-28T15:39:26.453Z,31.90
2017-05-28T15:41:54.779Z,31.60
2017-05-28T15:44:23.028Z,31.60
2017-05-28T15:46:50.484Z,31.60
2017-05-28T15:49:18.714Z,31.90
2017-05-28T15:51:46.949Z,31.80
2017-05-28T15:54:15.244Z,31.40
2017-05-28T15:56:43.478Z,31.30
2017-05-28T15:59:10.977Z,31.30
2017-05-28T16:01:39.212Z,31.20
2017-05-28T16:04:07.435Z,31.30
2017-05-28T16:06:35.667Z,31.30
2017-05-28T16:09:03.896Z,31.10
2017-05-28T16:11:32.130Z,31.00
2017-05-28T16:14:00.363Z,31.00
2017-05-28T16:16:28.597Z,31.00
2017-05-28T16:18:56.827Z,30.90
2017-05-28T16:21:25.139Z,30.80
2017-05-28T16:23:53.366Z,30.90
2017-05-28T16:26:21.694Z,31.30
2017-05-28T16:28:49.979Z,31.20
2017-05-28T16:31:18.243Z,31.20
2017-05-28T16:33:46.529Z,30.90
2017-05-28T16:36:13.979Z,30.90
2017-05-28T16:38:42.221Z,30.90
2017-05-28T16:41:10.452Z,31.10
2017-05-28T16:43:38.683Z,31.20
2017-05-28T16:46:06.912Z,31.20
2017-05-28T16:48:35.154Z,31.00
2017-05-28T16:51:03.382Z,31.00
2017-05-28T16:53:31.616Z,31.00
2017-05-28T16:55:59.853Z,31.30
2017-05-28T16:58:28.087Z,31.60
2017-05-28T17:00:56.320Z,31.60
2017-05-28T17:03:24.549Z,31.10
2017-05-28T17:05:52.778Z,31.10
2017-05-28T17:08:21.000Z,31.00
2017-05-28T17:10:49.242Z,31.10
2017-05-28T17:13:17.504Z,31.00
2017-05-28T17:15:45.779Z,30.70
2017-05-28T17:18:14.008Z,30.40
2017-05-28T17:20:42.242Z,30.30
2017-05-28T17:23:10.479Z,30.10
2017-05-28T17:25:38.711Z,30.00
2017-05-28T17:28:07.105Z,30.00
2017-05-28T17:30:35.344Z,29.90
2017-05-28T17:33:03.563Z,29.80
2017-05-28T17:35:31.790Z,29.70
2017-05-28T17:38:00.022Z,29.60
2017-05-28T17:40:28.247Z,29.30
2017-05-28T17:42:56.487Z,29.10
2017-05-28T17:45:24.775Z,29.00
2017-05-28T17:47:53.007Z,28.90
2017-05-28T17:50:21.238Z,28.80
2017-05-28T17:52:49.476Z,28.80
2017-05-28T17:55:17.703Z,28.70
2017-05-28T17:57:45.947Z,28.60
2017-05-28T18:00:14.174Z,28.50
2017-05-28T18:02:42.411Z,28.40
2017-05-28T18:05:10.639Z,28.30
2017-05-28T18:07:38.940Z,28.20
2017-05-28T18:10:07.171Z,28.10
2017-05-28T18:12:35.406Z,28.10
2017-05-28T18:15:03.633Z,28.10
2017-05-28T18:17:31.866Z,28.00
2017-05-28T18:20:00.103Z,27.80
2017-05-28T18:22:28.328Z,27.80
2017-05-28T18:24:56.567Z,27.80
2017-05-28T18:27:24.843Z,27.60
2017-05-28T18:29:53.112Z,27.50
2017-05-28T18:32:21.338Z,27.40
2017-05-28T18:34:49.569Z,27.20
2017-05-28T18:37:17.802Z,27.10
2017-05-28T18:39:46.035Z,27.00
2017-05-28T18:42:14.267Z,26.90
2017-05-28T18:44:42.519Z,26.80
2017-05-28T18:47:10.739Z,26.70
2017-05-28T18:49:38.975Z,26.50
2017-05-28T18:52:07.287Z,26.40
2017-05-28T18:54:35.515Z,26.30
2017-05-28T18:57:03.739Z,26.10
2017-05-28T18:59:31.970Z,26.00
2017-05-28T19:02:00.207Z,25.80
2017-05-28T19:04:28.440Z,25.70
2017-05-28T19:06:56.678Z,25.60
2017-05-28T19:09:24.907Z,25.50
2017-05-28T19:11:53.140Z,25.40
2017-05-28T19:14:21.362Z,25.10
2017-05-28T19:16:49.612Z,25.00
2017-05-28T19:19:17.839Z,24.70
2017-05-28T19:21:46.094Z,24.60
2017-05-28T19:24:14.327Z,24.60
2017-05-28T19:26:42.626Z,24.40
2017-05-28T19:29:10.900Z,24.40
2017-05-28T19:31:39.119Z,24.30
2017-05-28T19:34:07.352Z,24.20
2017-05-28T19:36:35.578Z,24.20
2017-05-28T19:39:03.827Z,24.20
2017-05-28T19:41:32.047Z,24.10
2017-05-28T19:44:00.283Z,23.90
2017-05-28T19:46:28.616Z,23.80
2017-05-28T19:48:56.856Z,23.70
2017-05-28T19:51:25.088Z,23.60
2017-05-28T19:53:53.318Z,23.60
2017-05-28T19:56:21.626Z,23.60
2017-05-28T19:58:49.878Z,23.50
2017-05-28T20:01:18.115Z,23.60
2017-05-28T20:03:46.339Z,23.60
2017-05-28T20:06:14.570Z,23.50
2017-05-28T20:08:42.896Z,23.40
2017-05-28T20:11:11.142Z,23.40
2017-05-28T20:13:39.438Z,23.30
2017-05-28T20:16:07.677Z,23.20
2017-05-28T20:18:35.139Z,23.20
2017-05-28T20:21:03.374Z,23.00
2017-05-28T20:23:31.604Z,22.90
2017-05-28T20:25:59.894Z,22.70
2017-05-28T20:28:28.185Z,22.70
2017-05-28T20:30:56.438Z,22.60
2017-05-28T20:33:24.666Z,22.60
2017-05-28T20:35:52.895Z,22.60
2017-05-28T20:38:21.126Z,22.50
2017-05-28T20:40:49.358Z,22.40
2017-05-28T20:43:17.587Z,22.30
2017-05-28T20:45:45.818Z,22.20
2017-05-28T20:48:14.085Z,22.10
2017-05-28T20:50:41.549Z,22.10
2017-05-28T20:53:09.792Z,22.00
2017-05-28T20:55:38.019Z,22.00
2017-05-28T20:58:06.259Z,22.00
2017-05-28T21:00:34.541Z,21.90
2017-05-28T21:03:02.899Z,21.80
2017-05-28T21:05:31.131Z,21.80
2017-05-28T21:07:59.356Z,21.70
2017-05-28T21:10:27.586Z,21.60
2017-05-28T21:12:55.815Z,21.60
2017-05-28T21:15:24.079Z,21.70
2017-05-28T21:17:52.311Z,21.70
2017-05-28T21:20:20.641Z,21.70
2017-05-28T21:22:48.908Z,21.70
2017-05-28T21:25:17.143Z,21.70
2017-05-28T21:27:45.377Z,21.60
2017-05-28T21:30:13.632Z,21.60
2017-05-28T21:32:41.858Z,21.50
2017-05-28T21:35:10.099Z,21.50
2017-05-28T21:37:38.336Z,21.50
2017-05-28T21:40:06.633Z,21.40
2017-05-28T21:42:34.859Z,21.40
2017-05-28T21:45:03.084Z,21.40
2017-05-28T21:47:31.360Z,21.40
2017-05-28T21:49:59.627Z,21.30
2017-05-28T21:52:27.871Z,21.30
2017-05-28T21:54:56.095Z,21.40
2017-05-28T21:57:24.327Z,21.50
2017-05-28T22:02:38.391Z,21.20
2017-05-28T22:05:06.624Z,21.00
2017-05-28T22:07:34.854Z,20.90
2017-05-28T22:10:03.138Z,20.80
2017-05-28T22:12:31.416Z,20.60
2017-05-28T22:14:59.642Z,20.60
2017-05-28T22:17:27.971Z,20.50
2017-05-28T22:19:56.200Z,20.50
2017-05-28T22:22:24.514Z,20.50
2017-05-28T22:24:52.793Z,20.60
2017-05-28T22:27:21.022Z,20.60
2017-05-28T22:29:49.259Z,20.60
2017-05-28T22:32:17.499Z,20.60
2017-05-28T22:34:45.782Z,20.60
2017-05-28T22:37:14.017Z,20.60
2017-05-28T22:39:42.344Z,20.50
2017-05-28T22:42:10.617Z,20.30
2017-05-28T22:44:38.843Z,20.20
2017-05-28T22:47:06.351Z,20.20
2017-05-28T22:49:34.575Z,20.20
2017-05-28T22:52:02.898Z,20.20
2017-05-28T22:54:31.128Z,20.30
2017-05-28T22:56:59.351Z,20.30
2017-05-28T22:59:27.585Z,20.20
2017-05-28T23:01:55.803Z,20.20
2017-05-28T23:04:24.030Z,20.20
2017-05-28T23:06:52.270Z,20.30
2017-05-28T23:09:20.502Z,20.30
2017-05-28T23:11:48.943Z,20.20
2017-05-28T23:14:17.180Z,20.10
2017-05-28T23:16:45.407Z,20.10
2017-05-28T23:19:13.633Z,20.10
2017-05-28T23:21:41.863Z,20.20
2017-05-28T23:24:10.178Z,20.20
2017-05-28T23:26:38.439Z,20.20
2017-05-28T23:29:06.669Z,20.10
2017-05-28T23:31:34.994Z,20.00
2017-05-28T23:34:03.223Z,20.00
2017-05-28T23:36:31.552Z,20.00
2017-05-28T23:38:59.783Z,20.00
2017-05-28T23:41:28.015Z,19.80
2017-05-28T23:43:56.275Z,19.70
2017-05-28T23:46:24.500Z,19.70
2017-05-28T23:48:52.743Z,19.60
2017-05-28T23:51:20.962Z,19.50
2017-05-28T23:53:49.274Z,19.60
2017-05-28T23:56:17.558Z,19.60
2017-05-28T23:58:45.782Z,19.70
